Time;durP1;ratioP1;P1;durP2;ratioP2;P2;SDS_P1;SDS_P2;PMS_P1;PMS_P2;Temp;Humidity;BMP_temperature;BMP_pressure;BME280_temperature;BME280_humidity;BME280_pressure;Samples;Min_cycle;Max_cycle;Signal;HPM_P1;HPM_P2
2023/01/18 00:00:36;;;;;;;;;24.25;15.50;;;;;3.68;100.00;99026.72;5017962;28;45784;-83
2023/01/18 00:03:02;;;;;;;;;16.00;13.50;;;;;3.64;100.00;99030.25;5018093;28;45328;-83
2023/01/18 00:05:27;;;;;;;;;17.50;11.75;;;;;3.62;100.00;99037.16;5018068;28;45453;-83
2023/01/18 00:07:53;;;;;;;;;19.00;14.00;;;;;3.62;100.00;99040.59;5017672;28;46972;-83
2023/01/18 00:10:18;;;;;;;;;22.00;13.00;;;;;3.61;100.00;99041.47;5001022;28;45386;-83
2023/01/18 00:12:44;;;;;;;;;19.50;15.00;;;;;3.59;100.00;99037.28;5035645;28;45532;-83
2023/01/18 00:15:09;;;;;;;;;25.25;14.75;;;;;3.57;100.00;99032.16;5001114;28;47398;-83
2023/01/18 00:17:46;;;;;;;;;27.25;21.00;;;;;3.59;100.00;99035.53;5017522;28;46414;-83
2023/01/18 00:20:14;;;;;;;;;21.50;18.25;;;;;3.61;100.00;99043.22;5019114;28;45518;-84
2023/01/18 00:22:40;;;;;;;;;20.25;16.00;;;;;3.57;100.00;99045.03;5034525;28;45438;-84
2023/01/18 00:25:05;;;;;;;;;28.50;19.00;;;;;3.53;100.00;99043.44;5017127;28;51641;-83
2023/01/18 00:27:31;;;;;;;;;27.00;18.25;;;;;3.50;100.00;99048.66;5035356;28;46593;-84
2023/01/18 00:29:58;;;;;;;;;17.50;14.50;;;;;3.46;100.00;99049.63;5000298;28;67977;-83
2023/01/18 00:32:24;;;;;;;;;24.00;9.75;;;;;3.45;100.00;99060.78;5035271;28;45406;-84
2023/01/18 00:34:49;;;;;;;;;23.75;20.50;;;;;3.44;100.00;99059.13;5035329;28;45643;-84
2023/01/18 00:37:14;;;;;;;;;24.50;17.50;;;;;3.40;100.00;99054.91;5035403;28;46622;-84
2023/01/18 00:39:40;;;;;;;;;26.50;21.25;;;;;3.39;100.00;99058.38;5037991;28;45306;-83
2023/01/18 00:45:09;;;;;;;;;27.25;20.00;;;;;3.33;100.00;99072.25;4966612;28;45407;-83
2023/01/18 00:47:34;;;;;;;;;35.25;22.00;;;;;3.33;100.00;99074.81;4976737;28;46115;-83
2023/01/18 00:50:00;;;;;;;;;25.50;21.50;;;;;3.30;100.00;99074.88;4976526;28;50777;-84
2023/01/18 00:52:25;;;;;;;;;31.25;20.75;;;;;3.27;100.00;99085.28;4960545;28;45559;-84
2023/01/18 00:54:51;;;;;;;;;23.25;19.50;;;;;3.22;100.00;99074.25;4960716;28;45420;-84
2023/01/18 00:57:16;;;;;;;;;22.00;16.50;;;;;3.20;100.00;99084.56;4976688;28;48720;-83
2023/01/18 00:59:41;;;;;;;;;20.25;14.50;;;;;3.21;100.00;99088.84;4976419;28;56824;-83
2023/01/18 01:02:07;;;;;;;;;21.50;16.00;;;;;3.22;100.00;99095.66;4976679;28;45317;-83
2023/01/18 01:07:16;;;;;;;;;30.00;19.50;;;;;3.18;100.00;99094.06;4962582;28;45691;-83
2023/01/18 01:09:43;;;;;;;;;21.50;18.75;;;;;3.17;100.00;99107.78;4959802;28;62670;-83
2023/01/18 01:26:07;;;;;;;;;21.50;18.00;;;;;3.01;100.00;99119.31;5038330;28;45219;-83
2023/01/18 01:28:34;;;;;;;;;28.50;18.50;;;;;2.97;100.00;99123.72;5020562;28;45382;-83
2023/01/18 01:31:03;;;;;;;;;25.50;18.00;;;;;2.94;100.00;99125.50;5037680;28;45354;-84
2023/01/18 01:33:30;;;;;;;;;30.00;16.25;;;;;2.95;100.00;99128.03;5037731;28;45385;-83
2023/01/18 01:35:57;;;;;;;;;27.50;15.75;;;;;2.96;100.00;99122.00;5037565;28;45314;-83
2023/01/18 01:38:23;;;;;;;;;14.00;12.00;;;;;2.97;100.00;99136.56;5019794;28;47983;-83
2023/01/18 01:40:59;;;;;;;;;15.50;14.50;;;;;2.98;100.00;99133.09;5037814;28;45365;-83
2023/01/18 01:43:47;;;;;;;;;16.25;11.50;;;;;3.01;100.00;99134.75;5037753;28;45429;-83
2023/01/18 01:46:36;;;;;;;;;20.00;13.50;;;;;3.01;100.00;99143.31;5020060;28;45547;-83
2023/01/18 01:49:01;;;;;;;;;18.75;15.00;;;;;3.01;100.00;99147.59;5019202;28;46436;-83
2023/01/18 01:51:27;;;;;;;;;16.67;13.00;;;;;3.01;100.00;99147.59;5036196;28;45314;-83
2023/01/18 01:53:52;;;;;;;;;13.00;10.00;;;;;3.03;100.00;99145.84;5037240;28;46719;-83
2023/01/18 01:56:19;;;;;;;;;18.25;14.00;;;;;3.04;100.00;99150.94;5019681;28;45487;-83
2023/01/18 01:58:47;;;;;;;;;27.25;17.50;;;;;3.07;100.00;99150.88;5037507;28;45607;-83
2023/01/18 02:01:12;;;;;;;;;19.50;12.50;;;;;3.10;100.00;99153.38;5019839;28;45401;-84
2023/01/18 02:03:39;;;;;;;;;17.00;12.00;;;;;3.13;100.00;99159.34;5019618;28;46159;-84
2023/01/18 02:06:15;;;;;;;;;24.00;15.75;;;;;3.12;100.00;99162.78;5037167;28;45492;-83
2023/01/18 02:08:42;;;;;;;;;20.00;17.75;;;;;3.14;100.00;99155.88;5019597;28;46288;-84
2023/01/18 02:11:07;;;;;;;;;16.00;12.25;;;;;3.14;100.00;99161.00;5037614;28;45362;-84
2023/01/18 02:13:32;;;;;;;;;15.75;12.25;;;;;3.14;100.00;99154.16;5018767;28;58219;-83
2023/01/18 02:16:08;;;;;;;;;20.75;16.25;;;;;3.14;100.00;99164.44;5018760;28;62055;-84
2023/01/18 02:18:41;;;;;;;;;16.50;15.00;;;;;3.15;100.00;99173.84;5019347;28;46399;-84
2023/01/18 02:21:26;;;;;;;;;15.25;12.25;;;;;3.15;100.00;99163.53;5018938;28;45956;-83
2023/01/18 02:24:13;;;;;;;;;15.25;12.75;;;;;3.15;100.00;99170.41;5019599;28;45326;-84
2023/01/18 02:26:52;;;;;;;;;15.00;14.25;;;;;3.15;100.00;99176.41;5037337;28;45452;-84
2023/01/18 02:29:36;;;;;;;;;18.00;12.75;;;;;3.14;100.00;99181.56;5019311;28;46235;-83
2023/01/18 02:32:04;;;;;;;;;18.75;15.00;;;;;3.12;100.00;99178.19;5037248;28;45821;-84
2023/01/18 02:34:39;;;;;;;;;19.25;15.00;;;;;3.09;100.00;99179.97;5036769;28;45314;-83
2023/01/18 02:37:47;;;;;;;;;29.50;15.50;;;;;3.07;100.00;99180.88;5035932;28;45397;-83
2023/01/18 02:40:33;;;;;;;;;20.50;13.00;;;;;3.04;100.00;99189.50;5034389;28;46757;-83
2023/01/18 02:48:41;;;;;;;;;13.75;12.25;;;;;2.90;100.00;99192.41;5021533;28;45937;-83
2023/01/18 02:51:06;;;;;;;;;16.25;12.75;;;;;2.87;100.00;99194.19;5002344;28;47298;-83
2023/01/18 02:53:35;;;;;;;;;18.00;18.00;;;;;2.81;100.00;99197.75;5036652;28;45474;-84
2023/01/18 02:56:21;;;;;;;;;10.00;7.00;;;;;2.81;100.00;99204.63;5019044;28;45492;-84
2023/01/18 02:59:00;;;;;;;;;19.00;13.50;;;;;2.77;100.00;99213.25;5019007;28;45476;-83
2023/01/18 03:01:39;;;;;;;;;15.75;12.00;;;;;2.68;100.00;99215.13;5018402;28;46504;-84
2023/01/18 03:04:15;;;;;;;;;22.25;17.00;;;;;2.59;100.00;99222.19;5018392;28;45290;-84
2023/01/18 03:06:45;;;;;;;;;22.25;17.00;;;;;2.48;100.00;99215.53;5018737;28;45453;-84
2023/01/18 03:09:17;;;;;;;;;19.25;16.00;;;;;2.45;100.00;99231.03;5018985;28;45572;-84
2023/01/18 03:12:11;;;;;;;;;28.00;19.50;;;;;2.42;100.00;99232.81;5019537;28;45376;-84
2023/01/18 03:14:51;;;;;;;;;21.50;20.75;;;;;2.39;100.00;99233.72;5029216;28;45434;-84
2023/01/18 03:17:32;;;;;;;;;25.50;18.00;;;;;2.33;100.00;99237.25;5018345;28;45352;-84
2023/01/18 03:20:04;;;;;;;;;21.75;15.00;;;;;2.30;100.00;99239.88;5018265;28;45351;-84
2023/01/18 03:25:21;;;;;;;;;22.75;18.50;;;;;2.27;100.00;99236.53;5036076;28;45302;-84
2023/01/18 03:36:05;;;;;;;;;21.00;16.50;;;;;2.22;100.00;99246.03;5001126;28;45751;-84
2023/01/18 03:38:32;;;;;;;;;24.25;17.00;;;;;2.24;100.00;99247.69;4998438;28;45496;-84
2023/01/18 03:40:59;;;;;;;;;23.00;20.00;;;;;2.20;100.00;99250.34;4998460;28;45476;-84
2023/01/18 03:43:25;;;;;;;;;32.00;22.00;;;;;2.18;100.00;99264.94;5033194;28;45776;-83
2023/01/18 03:45:52;;;;;;;;;25.50;20.50;;;;;2.13;100.00;99263.28;5038016;28;45341;-83
2023/01/18 03:48:18;;;;;;;;;21.00;16.00;;;;;2.15;100.00;99259.84;5037874;28;45392;-83
2023/01/18 03:51:18;;;;;;;;;22.00;18.00;;;;;2.16;100.00;99270.09;5038066;28;45403;-83
2023/01/18 03:54:10;;;;;;;;;20.25;15.50;;;;;2.17;100.00;99276.91;5037769;28;46280;-84
2023/01/18 03:56:48;;;;;;;;;19.25;17.50;;;;;2.17;100.00;99287.19;5037925;28;45377;-84
2023/01/18 03:59:13;;;;;;;;;18.75;15.50;;;;;2.13;100.00;99290.69;5038232;28;45298;-84
2023/01/18 04:01:39;;;;;;;;;16.50;13.00;;;;;2.09;100.00;99289.88;5037882;28;45529;-84
2023/01/18 04:04:04;;;;;;;;;20.00;12.25;;;;;2.11;100.00;99292.44;5037958;28;45545;-83
2023/01/18 04:06:31;;;;;;;;;27.50;22.00;;;;;2.07;100.00;99296.78;5021227;28;45489;-84
2023/01/18 04:08:57;;;;;;;;;33.75;16.00;;;;;2.08;100.00;99300.19;5055913;28;45354;-83
2023/01/18 04:11:23;;;;;;;;;29.00;23.00;;;;;2.03;100.00;99299.44;5055439;28;57458;-83
2023/01/18 04:13:48;;;;;;;;;26.50;19.00;;;;;2.03;100.00;99307.13;5022584;28;47964;-83
2023/01/18 04:16:13;;;;;;;;;28.00;20.50;;;;;1.99;100.00;99308.91;5058665;28;60187;-83
2023/01/18 04:18:39;;;;;;;;;33.50;21.00;;;;;1.97;100.00;99308.09;5041344;28;45448;-83
2023/01/18 04:21:04;;;;;;;;;27.75;18.75;;;;;2.00;100.00;99309.75;5041270;28;45444;-83
2023/01/18 04:23:29;;;;;;;;;12.75;12.50;;;;;2.00;100.00;99317.44;5041123;28;46236;-83
2023/01/18 04:25:55;;;;;;;;;24.25;23.00;;;;;1.98;100.00;99320.03;5040804;28;59708;-83
2023/01/18 04:28:26;;;;;;;;;21.00;17.25;;;;;1.97;100.00;99320.03;5041155;28;46019;-84
2023/01/18 04:30:53;;;;;;;;;20.50;15.00;;;;;1.98;100.00;99327.72;5025222;28;45608;-83
2023/01/18 04:33:19;;;;;;;;;23.50;18.75;;;;;2.03;100.00;99331.06;5040738;28;48283;-83
2023/01/18 04:35:45;;;;;;;;;18.25;16.00;;;;;2.06;100.00;99327.59;5040990;28;45654;-83
2023/01/18 04:38:11;;;;;;;;;24.75;15.00;;;;;2.08;100.00;99339.53;5040960;28;45385;-84
2023/01/18 04:40:36;;;;;;;;;27.00;18.50;;;;;2.09;100.00;99330.97;5040288;28;63028;-83
2023/01/18 04:43:01;;;;;;;;;24.25;16.00;;;;;2.11;100.00;99339.47;5058149;28;63173;-83
2023/01/18 04:45:27;;;;;;;;;15.25;14.00;;;;;2.13;100.00;99335.16;5023523;28;55125;-83
2023/01/18 04:47:52;;;;;;;;;23.25;18.00;;;;;2.16;100.00;99336.84;5040881;28;45282;-83
2023/01/18 04:50:17;;;;;;;;;18.50;13.50;;;;;2.16;100.00;99339.41;5040286;28;63954;-83
2023/01/18 04:52:43;;;;;;;;;17.25;13.00;;;;;2.14;100.00;99323.19;5024039;28;52414;-84
2023/01/18 04:55:10;;;;;;;;;18.00;11.00;;;;;2.16;100.00;99336.00;5023885;28;45275;-84
2023/01/18 04:57:44;;;;;;;;;15.50;15.50;;;;;2.16;100.00;99336.84;5041166;28;45385;-84
2023/01/18 05:00:11;;;;;;;;;9.25;9.25;;;;;2.16;100.00;99338.56;5058188;28;45414;-84
2023/01/18 05:02:37;;;;;;;;;18.00;12.00;;;;;2.11;100.00;99343.78;5040495;28;46557;-84
2023/01/18 05:05:03;;;;;;;;;18.75;13.50;;;;;2.04;100.00;99343.00;5058427;28;45319;-84
2023/01/18 05:07:30;;;;;;;;;16.25;12.75;;;;;2.00;100.00;99351.66;5040465;28;45443;-84
2023/01/18 05:09:55;;;;;;;;;18.00;16.00;;;;;1.96;100.00;99352.56;5057292;28;45407;-84
2023/01/18 05:12:21;;;;;;;;;28.50;14.50;;;;;1.87;100.00;99348.41;5040307;28;47274;-83
2023/01/18 05:14:47;;;;;;;;;25.00;15.50;;;;;1.85;100.00;99351.91;5040004;28;45455;-84
2023/01/18 05:17:12;;;;;;;;;21.00;12.75;;;;;1.81;100.00;99355.38;5057912;28;57879;-84
2023/01/18 05:19:39;;;;;;;;;27.50;13.25;;;;;1.77;100.00;99364.00;5039792;28;58679;-83
2023/01/18 05:22:04;;;;;;;;;19.00;12.00;;;;;1.74;100.00;99364.88;5040428;28;46414;-84
2023/01/18 05:24:30;;;;;;;;;22.75;13.00;;;;;1.74;100.00;99370.84;5057832;28;45340;-83
2023/01/18 05:26:55;;;;;;;;;17.00;12.25;;;;;1.72;100.00;99370.03;5040637;28;45499;-83
2023/01/18 05:29:21;;;;;;;;;12.50;10.25;;;;;1.73;100.00;99370.91;5057975;28;45341;-84
2023/01/18 05:31:46;;;;;;;;;15.25;10.50;;;;;1.68;100.00;99364.97;5032450;28;45602;-83
2023/01/18 05:34:11;;;;;;;;;19.00;10.50;;;;;1.68;100.00;99372.69;5037703;28;53076;-84
2023/01/18 05:36:37;;;;;;;;;22.75;13.00;;;;;1.67;100.00;99381.22;5020518;28;45438;-83
2023/01/18 05:39:02;;;;;;;;;16.00;12.75;;;;;1.61;100.00;99384.72;5020096;28;52009;-83
2023/01/18 05:41:27;;;;;;;;;14.50;8.00;;;;;1.64;100.00;99399.25;5038004;28;49344;-83
2023/01/18 05:43:53;;;;;;;;;15.25;12.25;;;;;1.59;100.00;99391.59;5037574;28;45327;-83
2023/01/18 05:46:18;;;;;;;;;17.50;11.50;;;;;1.64;100.00;99402.66;5020140;28;45346;-83
2023/01/18 05:48:43;;;;;;;;;18.50;15.00;;;;;1.63;100.00;99402.66;5037665;28;48919;-83
2023/01/18 05:51:10;;;;;;;;;23.25;17.50;;;;;1.60;100.00;99413.84;5037538;28;52969;-83
2023/01/18 05:53:35;;;;;;;;;19.00;13.50;;;;;1.60;100.00;99418.97;5020175;28;45548;-84
2023/01/18 05:56:04;;;;;;;;;22.25;13.00;;;;;1.58;100.00;99420.69;5037831;28;45358;-84
2023/01/18 05:58:29;;;;;;;;;12.00;11.00;;;;;1.57;100.00;99413.03;5037593;28;45522;-84
2023/01/18 06:00:55;;;;;;;;;19.50;15.00;;;;;1.54;100.00;99416.44;5020053;28;45512;-83
2023/01/18 06:03:21;;;;;;;;;21.25;15.75;;;;;1.49;100.00;99418.25;5019773;28;45660;-84
2023/01/18 06:05:47;;;;;;;;;18.50;14.00;;;;;1.51;100.00;99430.19;5020139;28;45227;-83
2023/01/18 06:08:13;;;;;;;;;21.00;15.00;;;;;1.54;100.00;99435.28;5003297;28;45274;-84
2023/01/18 06:10:38;;;;;;;;;26.00;13.00;;;;;1.51;100.00;99439.59;5019616;28;45504;-84
2023/01/18 06:13:05;;;;;;;;;18.25;12.75;;;;;1.52;100.00;99449.84;5019347;28;45258;-83
2023/01/18 06:15:31;;;;;;;;;23.25;15.00;;;;;1.50;100.00;99446.41;5020138;28;45416;-84
2023/01/18 06:17:57;;;;;;;;;21.00;16.25;;;;;1.46;100.00;99442.19;5019608;28;45491;-83
2023/01/18 06:20:23;;;;;;;;;12.00;12.00;;;;;1.42;100.00;99452.53;5019519;28;46345;-84
2023/01/18 06:22:49;;;;;;;;;18.75;15.75;;;;;1.40;100.00;99456.84;5019564;28;45508;-84
2023/01/18 06:25:14;;;;;;;;;18.25;14.50;;;;;1.40;100.00;99455.13;5020031;28;45601;-84
2023/01/18 06:27:40;;;;;;;;;18.75;14.50;;;;;1.43;100.00;99457.66;5019343;28;45533;-84
2023/01/18 06:30:06;;;;;;;;;16.00;10.50;;;;;1.44;100.00;99481.56;5019740;28;45809;-84
2023/01/18 06:32:32;;;;;;;;;23.00;15.75;;;;;1.42;100.00;99475.63;4989017;28;45772;-83
2023/01/18 06:35:00;;;;;;;;;18.75;12.00;;;;;1.41;100.00;99482.47;4999411;28;45274;-84
2023/01/18 06:37:25;;;;;;;;;25.50;17.50;;;;;1.42;100.00;99488.44;4998902;28;45252;-83
2023/01/18 06:39:50;;;;;;;;;13.00;9.25;;;;;1.40;100.00;99490.16;5017204;28;56423;-84
2023/01/18 06:42:16;;;;;;;;;20.25;12.00;;;;;1.41;100.00;99491.84;5022295;28;45437;-84
2023/01/18 06:44:41;;;;;;;;;23.25;15.75;;;;;1.41;100.00;99500.41;5018711;28;60879;-84
2023/01/18 06:47:06;;;;;;;;;25.75;15.50;;;;;1.38;100.00;99499.59;5037309;28;45428;-84
2023/01/18 06:49:32;;;;;;;;;16.00;11.00;;;;;1.37;100.00;99495.31;5018412;28;62511;-83
2023/01/18 06:51:57;;;;;;;;;21.00;13.00;;;;;1.36;100.00;99504.75;5019006;28;45418;-83
2023/01/18 06:54:22;;;;;;;;;24.50;15.00;;;;;1.36;100.00;99507.31;5036896;28;45287;-83
2023/01/18 06:56:48;;;;;;;;;15.50;10.50;;;;;1.37;100.00;99513.28;5034618;28;65209;-84
2023/01/18 06:59:13;;;;;;;;;20.25;17.50;;;;;1.35;100.00;99514.13;5018755;28;47935;-83
2023/01/18 07:01:38;;;;;;;;;19.25;14.25;;;;;1.34;100.00;99509.03;5018847;28;45298;-83
2023/01/18 07:04:28;;;;;;;;;16.00;15.25;;;;;1.37;100.00;99516.69;5035968;28;64149;-88
2023/01/18 07:06:56;;;;;;;;;24.25;18.25;;;;;1.38;100.00;99520.13;5004250;28;45251;-90
2023/01/18 07:09:31;;;;;;;;;18.50;15.00;;;;;1.37;100.00;99526.09;5019969;28;46984;-90
2023/01/18 07:11:56;;;;;;;;;22.50;16.00;;;;;1.34;100.00;99530.38;5019668;28;45453;-89
2023/01/18 07:14:21;;;;;;;;;17.00;13.50;;;;;1.35;100.00;99533.78;5020049;28;45339;-87
2023/01/18 07:17:07;;;;;;;;;24.25;15.00;;;;;1.31;100.00;99530.41;5003150;28;45330;-88
2023/01/18 07:19:33;;;;;;;;;17.75;17.00;;;;;1.33;100.00;99545.78;5019389;28;46350;-88
2023/01/18 07:21:59;;;;;;;;;21.75;17.50;;;;;1.33;100.00;99543.22;5019188;28;45382;-88
2023/01/18 07:24:24;;;;;;;;;24.00;14.50;;;;;1.34;100.00;99547.50;5035925;28;45365;-88
2023/01/18 07:26:50;;;;;;;;;31.75;18.50;;;;;1.39;100.00;99553.41;5019507;28;45310;-89
2023/01/18 07:29:15;;;;;;;;;21.50;14.50;;;;;1.41;100.00;99561.09;5035803;28;47122;-87
2023/01/18 07:32:01;;;;;;;;;;;;;;;;;;;;;
2023/01/18 07:34:27;;;;;;;;;20.50;16.75;;;;;1.37;100.00;99565.41;5018335;28;68913;-88
2023/01/18 07:36:54;;;;;;;;;13.50;9.00;;;;;1.39;100.00;99578.22;5019146;28;45571;-90
2023/01/18 07:39:23;;;;;;;;;21.00;15.50;;;;;1.40;100.00;99573.06;5019985;28;46465;-90
2023/01/18 07:41:51;;;;;;;;;20.50;15.50;;;;;1.42;100.00;99575.63;5019907;28;45516;-89
2023/01/18 07:44:16;;;;;;;;;40.50;21.75;;;;;1.45;100.00;99584.13;5019259;28;45515;-88
2023/01/18 07:46:52;;;;;;;;;33.25;24.75;;;;;1.43;100.00;99585.88;5036150;28;45449;-91
2023/01/18 07:49:37;;;;;;;;;53.75;38.50;;;;;1.45;100.00;99596.97;5018903;28;46133;-91
2023/01/18 07:55:59;;;;;;;;;;;;;;;;;;;;;
2023/01/18 08:09:00;;;;;;;;;38.75;25.50;;;;;1.37;100.00;99616.69;4911184;28;45612;-91
2023/01/18 08:12:16;;;;;;;;;;;;;;;;;;;;;
2023/01/18 08:22:11;;;;;;;;;;;;;;;;;;;;;
2023/01/18 08:25:30;;;;;;;;;;;;;;;;;;;;;
2023/01/18 08:31:33;;;;;;;;;22.75;20.75;;;;;1.45;100.00;99629.41;4820490;29;45461;-92
2023/01/18 08:34:26;;;;;;;;;29.00;16.50;;;;;1.48;100.00;99637.94;4824516;29;44870;-91
2023/01/18 08:37:32;;;;;;;;;;;;;;;;;;;;;
2023/01/18 08:40:43;;;;;;;;;32.50;19.00;;;;;1.46;100.00;99639.66;4830372;29;47260;-90
2023/01/18 08:43:48;;;;;;;;;30.75;21.50;;;;;1.48;100.00;99649.91;4842774;29;45503;-89
2023/01/18 08:53:50;;;;;;;;;;;;;;;;;;;;;
2023/01/18 08:59:57;;;;;;;;;;;;;;;;;;;;;
2023/01/18 09:03:05;;;;;;;;;;;;;;;;;;;;;
2023/01/18 09:06:15;;;;;;;;;29.00;20.50;;;;;1.69;100.00;99693.34;4934346;28;75052;-89
2023/01/18 09:08:49;;;;;;;;;24.75;18.75;;;;;1.81;100.00;99710.31;5021537;28;46061;-88
2023/01/18 09:11:37;;;;;;;;;19.00;18.00;;;;;1.88;100.00;99723.94;5018161;28;45559;-90
2023/01/18 09:14:37;;;;;;;;;;;;;;;;;;;;;
2023/01/18 09:17:22;;;;;;;;;21.75;19.50;;;;;2.00;100.00;99728.09;5032414;28;74700;-88
2023/01/18 09:20:18;;;;;;;;;;;;;;;;;;;;;
2023/01/18 09:22:46;;;;;;;;;31.50;20.50;;;;;2.10;100.00;99734.88;5029860;28;68845;-88
2023/01/18 09:25:17;;;;;;;;;15.75;15.75;;;;;2.12;100.00;99738.25;5022351;28;45351;-90
2023/01/18 09:28:16;;;;;;;;;;;;;;;;;;;;;
2023/01/18 09:31:15;;;;;;;;;;;;;;;;;;;;;
2023/01/18 09:37:10;;;;;;;;;;;;;;;;;;;;;
2023/01/18 09:43:37;;;;;;;;;;;;;;;;;;;;;
2023/01/18 09:49:08;;;;;;;;;;;;;;;;;;;;;
2023/01/18 09:51:53;;;;;;;;;19.50;15.00;;;;;2.62;100.00;99761.66;4899249;29;76256;-90
2023/01/18 09:54:41;;;;;;;;;;;;;;;;;;;;;
2023/01/18 09:57:43;;;;;;;;;;;;;;;;;;;;;
2023/01/18 10:00:35;;;;;;;;;;;;;;;;;;;;;
2023/01/18 10:09:48;;;;;;;;;;;;;;;;;;;;;
2023/01/18 10:12:53;;;;;;;;;;;;;;;;;;;;;
2023/01/18 10:22:18;;;;;;;;;;;;;;;;;;;;;
2023/01/18 10:25:33;;;;;;;;;;;;;;;;;;;;;
2023/01/18 10:28:02;;;;;;;;;6.75;6.75;;;;;3.55;100.00;99794.66;4800677;29;46435;-90
2023/01/18 10:31:02;;;;;;;;;14.00;9.50;;;;;3.63;100.00;99793.69;4807604;29;45389;-90
2023/01/18 10:37:12;;;;;;;;;;;;;;;;;;;;;
2023/01/18 10:40:09;;;;;;;;;;;;;;;;;;;;;
2023/01/18 10:42:48;;;;;;;;;;;;;;;;;;;;;
2023/01/18 10:45:47;;;;;;;;;;;;;;;;;;;;;
2023/01/18 10:48:33;;;;;;;;;6.00;5.50;;;;;4.12;100.00;99812.63;4841006;29;68495;-90
2023/01/18 10:51:30;;;;;;;;;11.50;8.75;;;;;4.17;100.00;99803.09;4843541;29;45614;-90
2023/01/18 10:55:00;;;;;;;;;;;;;;;;;;;;;
2023/01/18 10:58:03;;;;;;;;;;;;;;;;;;;;;
2023/01/18 11:01:03;;;;;;;;;;;;;;;;;;;;;
2023/01/18 11:03:53;;;;;;;;;;;;;;;;;;;;;
2023/01/18 11:07:15;;;;;;;;;;;;;;;;;;;;;
2023/01/18 11:10:10;;;;;;;;;;;;;;;;;;;;;
2023/01/18 11:12:56;;;;;;;;;;;;;;;;;;;;;
2023/01/18 11:15:57;;;;;;;;;;;;;;;;;;;;;
2023/01/18 11:22:31;;;;;;;;;;;;;;;;;;;;;
2023/01/18 11:25:33;;;;;;;;;;;;;;;;;;;;;
2023/01/18 11:31:44;;;;;;;;;;;;;;;;;;;;;
2023/01/18 11:35:08;;;;;;;;;11.00;5.25;;;;;13.54;100.00;99774.88;4808064;29;70146;-91
2023/01/18 11:38:05;;;;;;;;;6.00;3.00;;;;;14.36;100.00;99784.06;4775549;29;45618;-91
2023/01/18 11:40:46;;;;;;;;;;;;;;;;;;;;;
2023/01/18 11:47:14;;;;;;;;;;;;;;;;;;;;;
2023/01/18 11:50:02;;;;;;;;;6.25;3.00;;;;;16.90;100.00;99778.16;4809935;29;45427;-88
2023/01/18 11:52:36;;;;;;;;;3.75;2.25;;;;;17.54;100.00;99788.47;4806094;29;46543;-89
2023/01/18 11:55:40;;;;;;;;;;;;;;;;;;;;;
2023/01/18 11:58:29;;;;;;;;;6.50;3.25;;;;;18.88;100.00;99791.56;4829431;29;69820;-87
2023/01/18 12:01:20;;;;;;;;;0.00;0.00;;;;;19.11;100.00;99791.53;4840065;29;45366;-87
2023/01/18 12:04:05;;;;;;;;;1.00;1.00;;;;;19.39;100.00;99797.25;4884553;29;46903;-87
2023/01/18 12:07:05;;;;;;;;;1.75;1.50;;;;;19.52;100.00;99782.94;4897884;28;45875;-88
2023/01/18 12:09:59;;;;;;;;;1.75;1.75;;;;;19.66;100.00;99783.63;4874775;29;45256;-86
2023/01/18 12:12:27;;;;;;;;;1.00;1.00;;;;;19.88;100.00;99793.28;4885047;29;45616;-87
2023/01/18 12:15:07;;;;;;;;;2.25;2.00;;;;;20.19;100.00;99788.06;4929212;28;47458;-87
2023/01/18 12:17:55;;;;;;;;;3.50;1.00;;;;;20.62;100.00;99787.91;4986497;28;45686;-87
2023/01/18 12:20:29;;;;;;;;;2.50;2.00;;;;;21.01;100.00;99782.78;5001706;28;45457;-88
2023/01/18 12:23:22;;;;;;;;;1.00;1.00;;;;;21.52;100.00;99788.06;4982999;28;45410;-88
2023/01/18 12:26:00;;;;;;;;;3.50;2.00;;;;;21.76;100.00;99785.81;5012182;28;46664;-87
2023/01/18 12:28:47;;;;;;;;;3.00;2.00;;;;;21.85;100.00;99790.28;5014306;28;45820;-88
2023/01/18 12:31:36;;;;;;;;;4.25;3.00;;;;;21.98;100.00;99779.41;5016554;28;45420;-88
2023/01/18 12:34:12;;;;;;;;;2.00;2.00;;;;;22.43;100.00;99783.25;5004517;28;45556;-88
2023/01/18 12:36:45;;;;;;;;;3.00;2.00;;;;;22.46;100.00;99780.31;5004142;28;46268;-87
2023/01/18 12:42:03;;;;;;;;;2.25;2.00;;;;;22.58;100.00;99778.31;5212981;22;67676;-88
2023/01/18 12:44:51;;;;;;;;;5.00;3.75;;;;;22.51;100.00;99782.53;5032071;28;45377;-88
2023/01/18 12:47:31;;;;;;;;;2.00;2.00;;;;;22.01;100.00;99787.06;5039224;28;45566;-88
2023/01/18 12:49:58;;;;;;;;;1.00;1.00;;;;;21.53;100.00;99784.44;5022497;28;45288;-88
2023/01/18 12:52:24;;;;;;;;;5.75;3.00;;;;;21.50;100.00;99796.13;5004718;28;45526;-89
2023/01/18 12:54:58;;;;;;;;;3.25;2.00;;;;;21.58;100.00;99795.44;5037669;28;45446;-88
2023/01/18 12:57:24;;;;;;;;;4.25;3.25;;;;;21.53;100.00;99795.03;5006395;28;46442;-89
2023/01/18 12:59:54;;;;;;;;;4.50;3.25;;;;;21.65;100.00;99796.56;5004799;28;45965;-88
2023/01/18 13:02:34;;;;;;;;;2.00;2.00;;;;;21.60;100.00;99799.63;5005259;28;45362;-88
2023/01/18 13:06:00;;;;;;;;;4.75;3.00;;;;;21.13;100.00;99798.53;5035793;28;45416;-88
2023/01/18 13:08:33;;;;;;;;;4.25;1.00;;;;;20.09;100.00;99801.19;5005095;28;46675;-89
2023/01/18 13:11:23;;;;;;;;;4.00;1.75;;;;;19.70;100.00;99799.06;5020681;28;45743;-88
2023/01/18 13:13:54;;;;;;;;;5.75;2.50;;;;;19.88;100.00;99811.75;5023417;28;45292;-88
2023/01/18 13:16:19;;;;;;;;;6.25;4.50;;;;;20.41;100.00;99802.94;5021188;28;45442;-88
2023/01/18 13:19:19;;;;;;;;;17.00;16.75;;;;;20.68;100.00;99799.78;5031633;28;48064;-88
2023/01/18 13:21:59;;;;;;;;;3.50;2.00;;;;;20.66;100.00;99807.84;4977086;28;45539;-88
2023/01/18 13:24:47;;;;;;;;;1.00;1.00;;;;;20.71;100.00;99811.88;4988963;28;45407;-88
2023/01/18 13:27:26;;;;;;;;;2.25;1.50;;;;;20.91;100.00;99796.94;4990179;28;45360;-88
2023/01/18 13:29:51;;;;;;;;;5.50;3.00;;;;;20.83;100.00;99801.09;4992492;28;45398;-88
2023/01/18 13:32:31;;;;;;;;;4.00;3.25;;;;;20.83;100.00;99802.91;4987266;28;47448;-88
2023/01/18 13:35:02;;;;;;;;;4.75;3.75;;;;;20.78;100.00;99818.31;4974886;28;45347;-89
2023/01/18 13:37:54;;;;;;;;;4.00;3.00;;;;;20.25;100.00;99813.97;4996541;28;45537;-90
2023/01/18 13:40:34;;;;;;;;;3.75;3.00;;;;;19.51;100.00;99817.38;4955134;28;47116;-86
2023/01/18 13:42:59;;;;;;;;;3.75;2.50;;;;;18.54;100.00;99822.34;4981608;28;45733;-86
2023/01/18 13:45:27;;;;;;;;;3.00;2.00;;;;;17.91;100.00;99827.91;4978637;28;49446;-88
2023/01/18 13:48:04;;;;;;;;;;;;;;;;;;;;;
2023/01/18 13:50:30;;;;;;;;;3.25;2.25;;;;;17.22;100.00;99825.00;4996239;28;74553;-88
2023/01/18 13:53:42;;;;;;;;;4.00;2.00;;;;;16.64;100.00;99819.34;4998891;28;45461;-88
2023/01/18 13:56:43;;;;;;;;;3.00;2.00;;;;;16.05;100.00;99830.34;5016638;28;45345;-89
2023/01/18 14:02:42;;;;;;;;;;;;;;;;;;;;;
2023/01/18 14:05:51;;;;;;;;;;;;;;;;;;;;;
2023/01/18 14:11:38;;;;;;;;;;;;;;;;;;;;;
2023/01/18 14:14:41;;;;;;;;;;;;;;;;;;;;;
2023/01/18 14:17:14;;;;;;;;;1.50;1.00;;;;;10.70;100.00;99878.44;5020598;28;74263;-85
2023/01/18 14:19:56;;;;;;;;;;;;;;;;;;;;;
2023/01/18 14:22:52;;;;;;;;;;;;;;;;;;;;;
2023/01/18 14:25:42;;;;;;;;;3.00;2.00;;;;;10.08;100.00;99876.66;5017283;28;75392;-87
2023/01/18 14:28:57;;;;;;;;;1.00;1.00;;;;;9.92;100.00;99879.91;5027385;28;45322;-89
2023/01/18 14:31:57;;;;;;;;;;;;;;;;;;;;;
2023/01/18 14:34:34;;;;;;;;;0.00;0.00;;;;;9.44;100.00;99877.41;5016203;28;71476;-88
2023/01/18 14:37:13;;;;;;;;;;;;;;;;;;;;;
2023/01/18 14:39:51;;;;;;;;;1.00;1.00;;;;;9.30;100.00;99883.16;5010330;28;73232;-88
2023/01/18 14:42:38;;;;;;;;;;;;;;;;;;;;;
2023/01/18 14:45:28;;;;;;;;;1.00;1.00;;;;;9.15;100.00;99880.25;5047214;28;71144;-88
2023/01/18 14:48:22;;;;;;;;;;;;;;;;;;;;;
2023/01/18 14:50:52;;;;;;;;;4.50;1.50;;;;;8.96;100.00;99880.91;5037789;28;72950;-88
2023/01/18 14:53:23;;;;;;;;;2.00;2.00;;;;;8.89;100.00;99884.63;5037204;28;45435;-87
2023/01/18 14:56:21;;;;;;;;;4.00;1.00;;;;;8.81;100.00;99894.44;5024095;28;45349;-88
2023/01/18 14:58:58;;;;;;;;;0.50;0.50;;;;;8.65;100.00;99894.97;5023618;28;45649;-86
2023/01/18 15:01:39;;;;;;;;;1.00;0.00;;;;;8.47;100.00;99898.22;5046254;28;45677;-85
2023/01/18 15:04:19;;;;;;;;;4.00;1.00;;;;;8.31;100.00;99897.81;5035736;28;45358;-86
2023/01/18 15:06:57;;;;;;;;;6.75;2.00;;;;;8.19;100.00;99900.81;5044819;28;45496;-86
2023/01/18 15:09:27;;;;;;;;;1.00;1.00;;;;;8.04;100.00;99894.38;5035270;28;45540;-87
2023/01/18 15:11:55;;;;;;;;;4.00;1.00;;;;;7.95;100.00;99898.13;5018090;28;45484;-87